Time,TemperatureF,DewpointF,PressureIn,WindDirection,WindDirectionDegrees,WindSpeedMPH,WindSpeedGustMPH,Humidity,HourlyPrecipIn,Conditions,Clouds,dailyrainin,SolarRadiationWatts/m^2,SoftwareType,DateUTC
2013-07-27 00:12:00,50.4,41.0,29.77,East,99,5.0,10.0,71,0.00,,,0.01,0,weatherlink.com 1.10,2013-07-27 06:12:00,
2013-07-27 00:27:00,49.9,41.0,29.76,East,94,7.0,8.0,72,0.00,,,0.00,0,weatherlink.com 1.10,2013-07-27 06:27:00,
2013-07-27 00:42:00,49.9,41.0,29.77,East,99,5.0,9.0,72,0.00,,,0.00,0,weatherlink.com 1.10,2013-07-27 06:42:00,
2013-07-27 00:57:00,49.5,41.0,29.76,SE,130,2.0,7.0,73,0.00,,,0.00,0,weatherlink.com 1.10,2013-07-27 06:57:00,
2013-07-27 01:12:00,49.9,42.0,29.76,SE,132,0.0,5.0,73,0.00,,,0.00,0,weatherlink.com 1.10,2013-07-27 07:12:00,
2013-07-27 01:27:00,49.9,42.0,29.76,SE,132,0.0,3.0,73,0.00,,,0.00,0,weatherlink.com 1.10,2013-07-27 07:27:00,
2013-07-27 01:42:00,49.6,42.0,29.76,SSE,147,0.0,1.0,75,0.00,,,0.00,0,weatherlink.com 1.10,2013-07-27 07:42:00,
2013-07-27 01:57:00,49.5,42.0,29.75,SSE,167,0.0,3.0,76,0.00,,,0.00,0,weatherlink.com 1.10,2013-07-27 07:57:00,
2013-07-27 02:12:00,49.1,42.0,29.74,SSE,164,0.0,2.0,77,0.00,,,0.00,0,weatherlink.com 1.10,2013-07-27 08:12:00,
2013-07-27 02:27:00,48.5,42.0,29.73,South,170,0.0,2.0,79,0.00,,,0.00,0,weatherlink.com 1.10,2013-07-27 08:27:00,
2013-07-27 02:42:00,48.2,42.0,29.74,South,173,0.0,2.0,79,0.00,,,0.00,0,weatherlink.com 1.10,2013-07-27 08:42:00,
2013-07-27 02:57:00,47.8,43.0,29.73,South,173,0.0,0.0,82,0.00,,,0.00,0,weatherlink.com 1.10,2013-07-27 08:57:00,
2013-07-27 03:12:00,47.7,43.0,29.73,South,173,0.0,0.0,82,0.00,,,0.00,0,weatherlink.com 1.10,2013-07-27 09:12:00,
2013-07-27 03:27:00,48.1,43.0,29.72,South,173,0.0,2.0,82,0.00,,,0.00,0,weatherlink.com 1.10,2013-07-27 09:27:00,
2013-07-27 03:42:00,48.4,43.0,29.71,West,259,0.0,3.0,81,0.00,,,0.00,0,weatherlink.com 1.10,2013-07-27 09:42:00,
2013-07-27 03:57:00,47.8,43.0,29.71,West,259,0.0,0.0,82,0.00,,,0.00,0,weatherlink.com 1.10,2013-07-27 09:57:00,
2013-07-27 04:12:00,47.9,43.0,29.70,West,259,0.0,1.0,82,0.00,,,0.00,0,weatherlink.com 1.10,2013-07-27 10:12:00,
2013-07-27 04:27:00,47.9,43.0,29.70,West,259,0.0,1.0,82,0.00,,,0.00,0,weatherlink.com 1.10,2013-07-27 10:27:00,
2013-07-27 04:42:00,47.8,42.0,29.70,West,259,0.0,1.0,81,0.00,,,0.00,0,weatherlink.com 1.10,2013-07-27 10:42:00,
2013-07-27 04:57:00,47.5,42.0,29.70,West,259,0.0,0.0,81,0.00,,,0.00,0,weatherlink.com 1.10,2013-07-27 10:57:00,
2013-07-27 05:12:00,46.7,42.0,29.69,West,259,0.0,1.0,84,0.00,,,0.00,0,weatherlink.com 1.10,2013-07-27 11:12:00,
2013-07-27 05:27:00,46.8,43.0,29.69,West,259,0.0,0.0,85,0.00,,,0.00,0,weatherlink.com 1.10,2013-07-27 11:27:00,
2013-07-27 05:42:00,46.9,42.0,29.69,SSW,207,2.0,3.0,84,0.00,,,0.00,0,weatherlink.com 1.10,2013-07-27 11:42:00,
2013-07-27 05:57:00,47.5,42.0,29.69,WSW,256,0.0,3.0,82,0.00,,,0.00,0,weatherlink.com 1.10,2013-07-27 11:57:00,
2013-07-27 06:12:00,46.9,42.0,29.69,WSW,256,0.0,0.0,82,0.00,,,0.00,11,weatherlink.com 1.10,2013-07-27 12:12:00,
2013-07-27 06:27:00,46.8,43.0,29.69,WSW,256,0.0,0.0,85,0.00,,,0.00,25,weatherlink.com 1.10,2013-07-27 12:27:00,
2013-07-27 06:42:00,48.1,44.0,29.68,WSW,256,0.0,1.0,86,0.00,,,0.00,76,weatherlink.com 1.10,2013-07-27 12:42:00,
2013-07-27 06:57:00,50.4,45.0,29.68,WSW,256,0.0,0.0,81,0.00,,,0.00,128,weatherlink.com 1.10,2013-07-27 12:57:00,
2013-07-27 07:12:00,52.3,45.0,29.68,WSW,256,0.0,2.0,75,0.00,,,0.00,172,weatherlink.com 1.10,2013-07-27 13:12:00,
2013-07-27 07:28:00,53.9,45.0,29.68,SSW,206,0.0,4.0,72,0.00,,,0.00,237,weatherlink.com 1.10,2013-07-27 13:28:00,
2013-07-27 07:43:00,55.3,45.0,29.68,SW,227,1.0,8.0,69,0.00,,,0.00,265,weatherlink.com 1.10,2013-07-27 13:43:00,
2013-07-27 07:58:00,56.2,45.0,29.67,SSE,163,0.0,9.0,66,0.00,,,0.00,171,weatherlink.com 1.10,2013-07-27 13:58:00,
2013-07-27 08:13:00,56.5,45.0,29.67,WNW,292,1.0,6.0,65,0.00,,,0.00,267,weatherlink.com 1.10,2013-07-27 14:13:00,
2013-07-27 08:28:00,57.4,45.0,29.67,West,267,3.0,6.0,64,0.00,,,0.00,285,weatherlink.com 1.10,2013-07-27 14:28:00,
2013-07-27 08:43:00,57.7,45.0,29.66,WSW,242,1.0,5.0,63,0.00,,,0.00,264,weatherlink.com 1.10,2013-07-27 14:43:00,
2013-07-27 08:58:00,58.3,45.0,29.66,SSE,165,1.0,8.0,62,0.00,,,0.00,283,weatherlink.com 1.10,2013-07-27 14:58:00,
2013-07-27 09:13:00,59.0,45.0,29.65,West,281,2.0,7.0,61,0.00,,,0.00,413,weatherlink.com 1.10,2013-07-27 15:13:00,
2013-07-27 09:28:00,60.4,45.0,29.65,SSW,194,5.0,6.0,57,0.00,,,0.00,557,weatherlink.com 1.10,2013-07-27 15:28:00,
2013-07-27 09:43:00,61.1,45.0,29.64,WSW,257,3.0,8.0,55,0.00,,,0.00,466,weatherlink.com 1.10,2013-07-27 15:43:00,
2013-07-27 09:58:00,62.2,46.0,29.64,West,267,3.0,10.0,55,0.00,,,0.00,540,weatherlink.com 1.10,2013-07-27 15:58:00,
2013-07-27 10:13:00,63.6,44.0,29.64,West,281,2.0,10.0,49,0.00,,,0.00,749,weatherlink.com 1.10,2013-07-27 16:13:00,
2013-07-27 10:28:00,65.1,46.0,29.64,West,266,1.0,10.0,50,0.00,,,0.00,795,weatherlink.com 1.10,2013-07-27 16:28:00,
2013-07-27 10:43:00,66.0,45.0,29.63,WSW,254,3.0,7.0,47,0.00,,,0.00,798,weatherlink.com 1.10,2013-07-27 16:43:00,
2013-07-27 10:58:00,67.4,45.0,29.63,ESE,106,1.0,9.0,45,0.00,,,0.00,803,weatherlink.com 1.10,2013-07-27 16:58:00,
2013-07-27 11:13:00,67.8,45.0,29.62,WSW,253,0.0,11.0,44,0.00,,,0.00,844,weatherlink.com 1.10,2013-07-27 17:13:00,
2013-07-27 11:28:00,69.4,42.0,29.62,NW,311,4.0,10.0,37,0.00,,,0.00,858,weatherlink.com 1.10,2013-07-27 17:28:00,
2013-07-27 11:44:00,70.0,43.0,29.62,WNW,303,6.0,6.0,38,0.00,,,0.00,809,weatherlink.com 1.10,2013-07-27 17:44:00,
2013-07-27 11:59:00,70.2,43.0,29.61,WNW,295,1.0,9.0,37,0.00,,,0.00,814,weatherlink.com 1.10,2013-07-27 17:59:00,
2013-07-27 12:14:00,70.9,41.0,29.60,WSW,247,1.0,5.0,34,0.00,,,0.00,824,weatherlink.com 1.10,2013-07-27 18:14:00,
2013-07-27 12:29:00,71.6,39.0,29.60,West,272,3.0,8.0,31,0.00,,,0.00,984,weatherlink.com 1.10,2013-07-27 18:29:00,
2013-07-27 12:44:00,73.5,40.0,29.59,WSW,238,1.0,7.0,30,0.00,,,0.00,390,weatherlink.com 1.10,2013-07-27 18:44:00,
2013-07-27 12:59:00,72.8,40.0,29.58,WSW,254,5.0,8.0,31,0.00,,,0.00,381,weatherlink.com 1.10,2013-07-27 18:59:00,
2013-07-27 13:14:00,72.1,41.0,29.58,WSW,242,2.0,5.0,32,0.00,,,0.00,668,weatherlink.com 1.10,2013-07-27 19:14:00,
2013-07-27 13:29:00,71.0,35.0,29.58,WSW,254,0.0,8.0,27,0.00,,,0.00,258,weatherlink.com 1.10,2013-07-27 19:29:00,
2013-07-27 13:44:00,69.9,38.0,29.58,NW,308,3.0,6.0,31,0.00,,,0.00,271,weatherlink.com 1.10,2013-07-27 19:44:00,
2013-07-27 13:59:00,67.7,36.0,29.57,WNW,294,3.0,11.0,31,0.00,,,0.00,116,weatherlink.com 1.10,2013-07-27 19:59:00,
2013-07-27 14:14:00,63.8,37.0,29.59,WNW,296,7.0,14.0,37,0.00,,,0.00,49,weatherlink.com 1.10,2013-07-27 20:14:00,
2013-07-27 14:29:00,62.4,34.0,29.59,NNE,30,0.0,7.0,34,0.00,,,0.00,70,weatherlink.com 1.10,2013-07-27 20:29:00,
2013-07-27 14:44:00,62.8,36.0,29.59,SSE,161,0.0,3.0,37,0.00,,,0.00,74,weatherlink.com 1.10,2013-07-27 20:44:00,
2013-07-27 14:59:00,62.6,41.0,29.59,NW,306,2.0,5.0,45,0.00,,,0.00,118,weatherlink.com 1.10,2013-07-27 20:59:00,
2013-07-27 15:14:00,61.6,40.0,29.58,West,275,3.0,6.0,46,0.00,,,0.00,243,weatherlink.com 1.10,2013-07-27 21:14:00,
2013-07-27 15:29:00,62.3,42.0,29.58,West,272,1.0,5.0,47,0.00,,,0.00,120,weatherlink.com 1.10,2013-07-27 21:29:00,
2013-07-27 15:44:00,60.7,43.0,29.56,SSW,209,2.0,11.0,52,0.00,,,0.00,436,weatherlink.com 1.10,2013-07-27 21:44:00,
2013-07-27 15:59:00,64.2,40.0,29.55,South,190,9.0,13.0,41,0.00,,,0.00,833,weatherlink.com 1.10,2013-07-27 21:59:00,
2013-07-27 16:14:00,64.0,40.0,29.55,SSE,168,4.0,16.0,41,0.00,,,0.00,860,weatherlink.com 1.10,2013-07-27 22:14:00,
2013-07-27 16:29:00,66.0,41.0,29.55,SSE,167,0.0,8.0,40,0.00,,,0.00,747,weatherlink.com 1.10,2013-07-27 22:29:00,
2013-07-27 16:44:00,67.7,40.0,29.54,SSW,205,2.0,8.0,36,0.00,,,0.00,701,weatherlink.com 1.10,2013-07-27 22:44:00,
2013-07-27 16:59:00,65.8,39.0,29.54,SSE,155,4.0,12.0,38,0.00,,,0.00,186,weatherlink.com 1.10,2013-07-27 22:59:00,
2013-07-27 17:14:00,63.3,41.0,29.54,SSE,168,1.0,11.0,44,0.00,,,0.00,125,weatherlink.com 1.10,2013-07-27 23:14:00,
2013-07-27 17:29:00,61.4,41.0,29.54,ESE,117,1.0,9.0,47,0.00,,,0.00,67,weatherlink.com 1.10,2013-07-27 23:29:00,
2013-07-27 17:44:00,59.1,40.0,29.55,WNW,295,4.0,14.0,50,0.00,,,0.00,33,weatherlink.com 1.10,2013-07-27 23:44:00,
2013-07-27 17:59:00,56.9,40.0,29.55,SSW,213,5.0,15.0,53,0.00,,,0.00,90,weatherlink.com 1.10,2013-07-27 23:59:00,
2013-07-27 18:14:00,56.3,41.0,29.55,West,262,4.0,12.0,57,0.00,,,0.00,42,weatherlink.com 1.10,2013-07-28 00:14:00,
2013-07-27 18:29:00,54.5,44.0,29.54,South,185,3.0,11.0,67,0.00,,,0.00,58,weatherlink.com 1.10,2013-07-28 00:29:00,
2013-07-27 18:44:00,52.9,45.0,29.53,NNE,18,2.0,11.0,74,0.00,,,0.00,62,weatherlink.com 1.10,2013-07-28 00:44:00,
2013-07-27 18:59:00,52.8,44.0,29.53,SSE,156,4.0,14.0,72,0.00,,,0.00,51,weatherlink.com 1.10,2013-07-28 00:59:00,
2013-07-27 19:14:00,52.7,44.0,29.53,SSW,202,2.0,12.0,71,0.00,,,0.00,37,weatherlink.com 1.10,2013-07-28 01:14:00,
2013-07-27 19:29:00,52.3,43.0,29.54,WSW,253,6.0,9.0,71,0.00,,,0.00,11,weatherlink.com 1.10,2013-07-28 01:29:00,
2013-07-27 19:44:00,52.8,42.0,29.55,West,271,7.0,10.0,67,0.00,,,0.00,9,weatherlink.com 1.10,2013-07-28 01:44:00,
2013-07-27 19:59:00,53.3,42.0,29.56,NW,319,4.0,11.0,66,0.00,,,0.00,5,weatherlink.com 1.10,2013-07-28 01:59:00,
2013-07-27 20:14:00,52.7,44.0,29.57,NNW,335,3.0,13.0,71,0.00,,,0.00,0,weatherlink.com 1.10,2013-07-28 02:14:00,
2013-07-27 20:29:00,51.5,45.0,29.57,NW,313,3.0,10.0,78,0.00,,,0.00,0,weatherlink.com 1.10,2013-07-28 02:29:00,
2013-07-27 20:44:00,50.1,46.0,29.58,SW,235,2.0,7.0,84,0.00,,,0.00,0,weatherlink.com 1.10,2013-07-28 02:44:00,
2013-07-27 20:59:00,49.0,46.0,29.58,WSW,257,0.0,3.0,88,0.02,,,0.02,0,weatherlink.com 1.10,2013-07-28 02:59:00,
2013-07-27 21:14:00,48.6,46.0,29.57,West,261,0.0,1.0,89,0.02,,,0.02,0,weatherlink.com 1.10,2013-07-28 03:14:00,
2013-07-27 21:29:00,48.5,46.0,29.57,West,261,0.0,0.0,90,0.03,,,0.03,0,weatherlink.com 1.10,2013-07-28 03:29:00,
2013-07-27 21:44:00,48.4,46.0,29.56,ENE,76,5.0,5.0,91,0.04,,,0.04,0,weatherlink.com 1.10,2013-07-28 03:44:00,
2013-07-27 21:59:00,48.4,46.0,29.57,East,80,0.0,0.0,91,0.02,,,0.04,0,weatherlink.com 1.10,2013-07-28 03:59:00,
2013-07-27 22:14:00,47.9,45.0,29.57,East,80,0.0,0.0,90,0.02,,,0.04,0,weatherlink.com 1.10,2013-07-28 04:14:00,
2013-07-27 22:29:00,47.8,45.0,29.56,East,80,0.0,0.0,90,0.01,,,0.04,0,weatherlink.com 1.10,2013-07-28 04:29:00,
2013-07-27 22:44:00,47.9,46.0,29.56,East,80,0.0,1.0,92,0.00,,,0.04,0,weatherlink.com 1.10,2013-07-28 04:44:00,
2013-07-27 22:59:00,47.8,46.0,29.55,East,80,0.0,1.0,92,0.00,,,0.04,0,weatherlink.com 1.10,2013-07-28 04:59:00,
2013-07-27 23:14:00,47.7,46.0,29.55,East,80,0.0,1.0,92,0.00,,,0.04,0,weatherlink.com 1.10,2013-07-28 05:14:00,
2013-07-27 23:29:00,47.6,45.0,29.55,East,81,0.0,2.0,91,0.00,,,0.04,0,weatherlink.com 1.10,2013-07-28 05:29:00,
2013-07-27 23:44:00,47.6,45.0,29.55,SSE,151,0.0,3.0,89,0.00,,,0.04,0,weatherlink.com 1.10,2013-07-28 05:44:00,
2013-07-27 23:59:00,47.6,45.0,29.55,SE,136,1.0,5.0,89,0.00,,,0.04,0,weatherlink.com 1.10,2013-07-28 05:59:00,